Time;durP1;ratioP1;P1;durP2;ratioP2;P2;SDS_P1;SDS_P2;PMS_P1;PMS_P2;Temp;Humidity;BMP_temperature;BMP_pressure;BME280_temperature;BME280_humidity;BME280_pressure;Samples;Min_cycle;Max_cycle;Signal;HPM_P1;HPM_P2
2024/01/03 00:01:49;;;;;;;;;;;10.30;99.90;;;;;;2616924;47;19942;-73
2024/01/03 00:04:26;;;;;;;;;;;10.30;99.90;;;;;;2616206;54;20893;-73
2024/01/03 00:06:56;;;;;;;;;;;10.30;99.90;;;;;;2616612;54;20441;-73
2024/01/03 00:09:28;;;;;;;;;;;10.30;99.90;;;;;;2616682;47;19958;-73
2024/01/03 00:11:58;;;;;;;;;;;10.30;99.90;;;;;;2617526;54;19947;-73
2024/01/03 00:14:29;;;;;;;;;;;10.40;99.90;;;;;;2620118;39;20347;-74
2024/01/03 00:17:01;;;;;;;;;;;10.30;99.90;;;;;;2624091;47;19945;-74
2024/01/03 00:19:30;;;;;;;;;;;10.30;99.90;;;;;;2616993;54;20061;-72
2024/01/03 00:22:00;;;;;;;;;;;10.30;99.90;;;;;;2601750;54;19954;-71
2024/01/03 00:24:36;;;;;;;;;;;10.30;99.90;;;;;;2603826;54;20046;-72
2024/01/03 00:27:06;;;;;;;;;;;10.20;99.90;;;;;;2604837;47;19958;-72
2024/01/03 00:29:50;;;;;;;;;;;10.30;99.90;;;;;;2605452;39;20133;-72
2024/01/03 00:32:20;;;;;;;;;;;10.30;99.90;;;;;;2606201;54;19954;-72
2024/01/03 00:34:54;;;;;;;;;;;10.40;99.90;;;;;;2602712;54;19947;-73
2024/01/03 00:37:25;;;;;;;;;;;10.40;99.90;;;;;;2605957;54;19946;-73
2024/01/03 00:39:59;;;;;;;;;;;10.30;99.90;;;;;;2605132;54;19947;-72
2024/01/03 00:42:28;;;;;;;;;;;10.30;99.90;;;;;;2604531;54;19947;-72
2024/01/03 00:44:58;;;;;;;;;;;10.30;99.90;;;;;;2604933;54;19946;-72
2024/01/03 00:47:28;;;;;;;;;;;10.30;99.90;;;;;;2605520;54;19977;-73
2024/01/03 00:49:57;;;;;;;;;;;10.30;99.90;;;;;;2608844;54;19950;-72
2024/01/03 00:52:27;;;;;;;;;;;10.30;99.90;;;;;;2615793;54;20061;-72
2024/01/03 00:54:59;;;;;;;;;;;10.30;99.90;;;;;;2615706;54;20414;-72
2024/01/03 00:57:29;;;;;;;;;;;10.20;99.90;;;;;;2616630;39;20356;-72
2024/01/03 00:59:58;;;;;;;;;;;10.20;99.90;;;;;;2616724;54;19939;-72
2024/01/03 01:02:29;;;;;;;;;;;10.20;99.90;;;;;;2616309;54;20034;-73
2024/01/03 01:04:58;;;;;;;;;;;10.20;99.90;;;;;;2615303;54;19938;-72
2024/01/03 01:07:28;;;;;;;;;;;10.30;99.90;;;;;;2617244;39;20010;-72
2024/01/03 01:10:00;;;;;;;;;;;10.30;99.90;;;;;;2617594;54;19947;-72
2024/01/03 01:12:30;;;;;;;;;;;10.30;99.90;;;;;;2618609;47;19950;-72
2024/01/03 01:15:00;;;;;;;;;;;10.30;99.90;;;;;;2618217;54;19960;-71
2024/01/03 01:17:30;;;;;;;;;;;10.30;99.90;;;;;;2619741;54;19947;-72
2024/01/03 01:20:00;;;;;;;;;;;10.30;99.90;;;;;;2617760;54;20097;-72
2024/01/03 01:22:30;;;;;;;;;;;10.30;99.90;;;;;;2618086;39;20341;-72
2024/01/03 01:25:02;;;;;;;;;;;10.30;99.90;;;;;;2616695;54;19947;-72
2024/01/03 01:27:32;;;;;;;;;;;10.30;99.90;;;;;;2614241;54;19945;-72
2024/01/03 01:30:01;;;;;;;;;;;10.20;99.90;;;;;;2616991;54;19953;-72
2024/01/03 01:32:31;;;;;;;;;;;10.20;99.90;;;;;;2616689;54;20038;-72
2024/01/03 01:35:01;;;;;;;;;;;10.20;99.90;;;;;;2614297;46;20003;-72
2024/01/03 01:37:30;;;;;;;;;;;10.30;99.90;;;;;;2616543;47;19939;-72
2024/01/03 01:40:03;;;;;;;;;;;10.20;99.90;;;;;;2615436;54;19947;-72
2024/01/03 01:45:05;;;;;;;;;;;10.30;99.90;;;;;;2610956;47;19965;-72
2024/01/03 01:47:35;;;;;;;;;;;10.20;99.90;;;;;;2616965;54;19947;-72
2024/01/03 01:50:05;;;;;;;;;;;10.20;99.90;;;;;;2618052;47;19947;-72
2024/01/03 01:52:35;;;;;;;;;;;10.20;99.90;;;;;;2614961;54;19946;-72
2024/01/03 01:55:08;;;;;;;;;;;10.20;99.90;;;;;;2615849;54;19973;-72
2024/01/03 01:57:38;;;;;;;;;;;10.20;99.90;;;;;;2617161;46;19953;-73
2024/01/03 02:00:09;;;;;;;;;;;10.20;99.90;;;;;;2616996;54;19939;-73
2024/01/03 02:02:39;;;;;;;;;;;10.20;99.90;;;;;;2617580;39;20354;-73
2024/01/03 02:05:09;;;;;;;;;;;10.10;99.90;;;;;;2617789;39;20371;-72
2024/01/03 02:07:39;;;;;;;;;;;10.10;99.90;;;;;;2617017;54;19961;-71
2024/01/03 02:10:11;;;;;;;;;;;10.10;99.90;;;;;;2616231;54;19946;-72
2024/01/03 02:12:41;;;;;;;;;;;10.20;99.90;;;;;;2617606;46;19958;-72
2024/01/03 02:15:11;;;;;;;;;;;10.10;99.90;;;;;;2617410;54;20457;-73
2024/01/03 02:17:41;;;;;;;;;;;10.10;99.90;;;;;;2617677;47;19946;-72
2024/01/03 02:20:11;;;;;;;;;;;10.10;99.90;;;;;;2617404;54;19947;-73
2024/01/03 02:22:43;;;;;;;;;;;10.10;99.90;;;;;;2622199;39;20395;-72
2024/01/03 02:25:14;;;;;;;;;;;10.10;99.90;;;;;;2621454;54;19947;-73
2024/01/03 02:27:44;;;;;;;;;;;10.10;99.90;;;;;;2622666;47;19957;-73
2024/01/03 02:30:15;;;;;;;;;;;10.10;99.90;;;;;;2622757;47;19956;-72
2024/01/03 02:32:44;;;;;;;;;;;10.20;99.90;;;;;;2624148;54;19946;-72
2024/01/03 02:35:14;;;;;;;;;;;10.20;99.90;;;;;;2620654;47;20463;-72
2024/01/03 02:37:46;;;;;;;;;;;10.30;99.90;;;;;;2618366;54;19954;-72
2024/01/03 02:40:16;;;;;;;;;;;10.30;99.90;;;;;;2616804;54;19953;-73
2024/01/03 02:42:45;;;;;;;;;;;10.30;99.90;;;;;;2618328;47;20441;-72
2024/01/03 02:45:15;;;;;;;;;;;10.20;99.90;;;;;;2618034;39;20494;-72
2024/01/03 02:47:45;;;;;;;;;;;10.30;99.90;;;;;;2618436;31;20445;-72
2024/01/03 02:50:15;;;;;;;;;;;10.30;99.90;;;;;;2616820;47;20479;-72
2024/01/03 02:52:47;;;;;;;;;;;10.30;99.90;;;;;;2617108;47;19957;-72
2024/01/03 02:55:17;;;;;;;;;;;10.30;99.90;;;;;;2616746;54;19946;-72
2024/01/03 02:57:46;;;;;;;;;;;10.30;99.90;;;;;;2617499;39;20371;-72
2024/01/03 03:00:16;;;;;;;;;;;10.30;99.90;;;;;;2617354;47;19952;-72
2024/01/03 03:02:46;;;;;;;;;;;10.30;99.90;;;;;;2617461;54;19947;-72
2024/01/03 03:05:16;;;;;;;;;;;10.30;99.90;;;;;;2617611;31;20449;-72
2024/01/03 03:07:48;;;;;;;;;;;10.30;99.90;;;;;;2617434;54;19965;-72
2024/01/03 03:10:17;;;;;;;;;;;10.30;99.90;;;;;;2616985;39;20341;-72
2024/01/03 03:12:47;;;;;;;;;;;10.30;99.90;;;;;;2617135;54;19947;-72
2024/01/03 03:15:17;;;;;;;;;;;10.30;99.90;;;;;;2617158;47;20038;-72
2024/01/03 03:17:46;;;;;;;;;;;10.30;99.90;;;;;;2617277;54;20377;-72
2024/01/03 03:20:16;;;;;;;;;;;10.30;99.90;;;;;;2617514;54;19938;-72
2024/01/03 03:22:48;;;;;;;;;;;10.30;99.90;;;;;;2617444;54;19938;-72
2024/01/03 03:25:18;;;;;;;;;;;10.30;99.90;;;;;;2616595;47;19945;-72
2024/01/03 03:27:48;;;;;;;;;;;10.30;99.90;;;;;;2617263;47;19946;-72
2024/01/03 03:30:17;;;;;;;;;;;10.30;99.90;;;;;;2616687;39;20388;-72
2024/01/03 03:32:47;;;;;;;;;;;10.30;99.90;;;;;;2616705;54;19946;-72
2024/01/03 03:35:17;;;;;;;;;;;10.30;99.90;;;;;;2616592;54;19939;-72
2024/01/03 03:37:49;;;;;;;;;;;10.30;99.90;;;;;;2617492;54;20012;-72
2024/01/03 03:40:19;;;;;;;;;;;10.30;99.90;;;;;;2616579;47;20437;-72
2024/01/03 03:42:49;;;;;;;;;;;10.30;99.90;;;;;;2616812;47;20547;-72
2024/01/03 03:45:18;;;;;;;;;;;10.30;99.90;;;;;;2616638;47;19958;-72
2024/01/03 03:47:48;;;;;;;;;;;10.30;99.90;;;;;;2616621;54;19954;-72
2024/01/03 03:50:18;;;;;;;;;;;10.30;99.90;;;;;;2616645;54;20030;-72
2024/01/03 03:52:50;;;;;;;;;;;10.30;99.90;;;;;;2616662;47;19954;-72
2024/01/03 03:55:20;;;;;;;;;;;10.30;99.90;;;;;;2616290;51;19945;-72
2024/01/03 03:57:50;;;;;;;;;;;10.20;99.90;;;;;;2616361;47;19947;-72
2024/01/03 04:00:20;;;;;;;;;;;10.20;99.90;;;;;;2618177;47;19947;-72
2024/01/03 04:05:20;;;;;;;;;;;10.20;99.90;;;;;;2588189;46;20026;-72
2024/01/03 04:07:53;;;;;;;;;;;10.20;99.90;;;;;;2618399;54;19954;-72
2024/01/03 04:10:22;;;;;;;;;;;10.20;99.90;;;;;;2616485;47;19954;-72
2024/01/03 04:12:52;;;;;;;;;;;10.20;99.90;;;;;;2616842;47;19946;-72
2024/01/03 04:15:22;;;;;;;;;;;10.20;99.90;;;;;;2616626;39;20325;-72
2024/01/03 04:17:55;;;;;;;;;;;10.20;99.90;;;;;;2618291;39;20325;-72
2024/01/03 04:20:25;;;;;;;;;;;10.20;99.90;;;;;;2616476;47;19947;-72
2024/01/03 04:22:57;;;;;;;;;;;10.10;99.90;;;;;;2617364;47;19946;-72
2024/01/03 04:25:27;;;;;;;;;;;10.10;99.90;;;;;;2617146;31;20432;-72
2024/01/03 04:27:57;;;;;;;;;;;10.10;99.90;;;;;;2617110;54;19946;-72
2024/01/03 04:30:26;;;;;;;;;;;10.00;99.90;;;;;;2615118;54;19946;-72
2024/01/03 04:32:56;;;;;;;;;;;10.00;99.90;;;;;;2616867;54;19953;-72
2024/01/03 04:35:26;;;;;;;;;;;10.00;99.90;;;;;;2613330;54;19947;-72
2024/01/03 04:38:02;;;;;;;;;;;10.10;99.90;;;;;;2619821;54;19957;-72
2024/01/03 04:40:32;;;;;;;;;;;10.10;99.90;;;;;;2621150;54;19946;-71
2024/01/03 04:43:02;;;;;;;;;;;10.10;99.90;;;;;;2616883;54;19976;-73
2024/01/03 04:45:32;;;;;;;;;;;10.10;99.90;;;;;;2616815;54;19942;-72
2024/01/03 04:48:01;;;;;;;;;;;10.10;99.90;;;;;;2616696;46;19962;-72
2024/01/03 04:50:31;;;;;;;;;;;10.00;99.90;;;;;;2619618;39;20368;-71
2024/01/03 04:53:04;;;;;;;;;;;10.10;99.90;;;;;;2622271;54;19947;-72
2024/01/03 04:55:33;;;;;;;;;;;10.00;99.90;;;;;;2616013;54;19954;-72
2024/01/03 04:58:03;;;;;;;;;;;10.10;99.90;;;;;;2616474;54;19954;-72
2024/01/03 05:00:36;;;;;;;;;;;10.10;99.90;;;;;;2616827;54;20042;-72
2024/01/03 05:03:06;;;;;;;;;;;10.10;99.90;;;;;;2617024;54;19947;-72
2024/01/03 05:05:36;;;;;;;;;;;10.10;99.90;;;;;;2616720;49;19951;-72
2024/01/03 05:08:08;;;;;;;;;;;10.10;99.90;;;;;;2612612;39;20308;-72
2024/01/03 05:10:39;;;;;;;;;;;10.10;99.90;;;;;;2614475;47;19947;-72
2024/01/03 05:13:08;;;;;;;;;;;10.20;99.90;;;;;;2618616;54;19939;-72
2024/01/03 05:15:38;;;;;;;;;;;10.10;99.90;;;;;;2617328;47;19972;-72
2024/01/03 05:18:08;;;;;;;;;;;10.10;99.90;;;;;;2615307;49;19946;-73
2024/01/03 05:20:38;;;;;;;;;;;10.10;99.90;;;;;;2617307;39;20349;-72
2024/01/03 05:23:10;;;;;;;;;;;10.10;99.90;;;;;;2617706;54;19954;-72
2024/01/03 05:25:40;;;;;;;;;;;10.10;99.90;;;;;;2617314;47;19947;-72
2024/01/03 05:28:10;;;;;;;;;;;10.10;99.90;;;;;;2618099;54;19962;-72
2024/01/03 05:30:40;;;;;;;;;;;10.20;99.90;;;;;;2618394;47;19947;-72
2024/01/03 05:33:10;;;;;;;;;;;10.20;99.90;;;;;;2622693;54;20016;-72
2024/01/03 05:35:40;;;;;;;;;;;10.10;99.90;;;;;;2623499;39;20412;-72
2024/01/03 05:38:12;;;;;;;;;;;10.10;99.90;;;;;;2622254;47;19939;-73
2024/01/03 05:40:42;;;;;;;;;;;10.10;99.90;;;;;;2621162;46;19939;-72
2024/01/03 05:43:12;;;;;;;;;;;10.10;99.90;;;;;;2619848;54;19946;-73
2024/01/03 05:45:42;;;;;;;;;;;10.10;99.90;;;;;;2618159;54;19947;-73
2024/01/03 05:48:12;;;;;;;;;;;10.10;99.90;;;;;;2617682;54;20012;-72
2024/01/03 05:50:42;;;;;;;;;;;10.10;99.90;;;;;;2617789;54;19938;-72
2024/01/03 05:53:14;;;;;;;;;;;10.10;99.90;;;;;;2617929;54;19954;-73
2024/01/03 05:55:44;;;;;;;;;;;10.10;99.90;;;;;;2616109;47;19985;-73
2024/01/03 05:58:13;;;;;;;;;;;10.10;99.90;;;;;;2617713;54;19950;-73
2024/01/03 06:00:43;;;;;;;;;;;10.10;99.90;;;;;;2615902;47;20460;-73
2024/01/03 06:03:13;;;;;;;;;;;10.10;99.90;;;;;;2616776;46;19951;-73
2024/01/03 06:05:43;;;;;;;;;;;10.10;99.90;;;;;;2616062;54;19946;-73
2024/01/03 06:08:15;;;;;;;;;;;10.10;99.90;;;;;;2618305;50;19946;-73
2024/01/03 06:10:45;;;;;;;;;;;10.10;99.90;;;;;;2617904;47;19946;-73
2024/01/03 06:13:15;;;;;;;;;;;10.10;99.90;;;;;;2617465;54;20452;-72
2024/01/03 06:15:44;;;;;;;;;;;10.10;99.90;;;;;;2615897;54;19947;-73
2024/01/03 06:18:14;;;;;;;;;;;10.10;99.90;;;;;;2616748;47;19954;-73
2024/01/03 06:20:45;;;;;;;;;;;10.10;99.90;;;;;;2617635;47;20046;-74
2024/01/03 06:23:17;;;;;;;;;;;10.10;99.90;;;;;;2617942;54;20421;-73
2024/01/03 06:25:47;;;;;;;;;;;10.10;99.90;;;;;;2616944;47;19942;-74
2024/01/03 06:28:17;;;;;;;;;;;10.10;99.90;;;;;;2617441;54;19946;-72
2024/01/03 06:30:47;;;;;;;;;;;10.10;99.90;;;;;;2618035;54;19938;-73
2024/01/03 06:33:16;;;;;;;;;;;10.20;99.90;;;;;;2617393;47;19947;-73
2024/01/03 06:35:46;;;;;;;;;;;10.20;99.90;;;;;;2617909;54;19958;-73
2024/01/03 06:38:18;;;;;;;;;;;10.20;99.90;;;;;;2620995;54;19993;-72
2024/01/03 06:40:48;;;;;;;;;;;10.20;99.90;;;;;;2623199;54;19938;-72
2024/01/03 06:43:18;;;;;;;;;;;10.20;99.90;;;;;;2623778;47;19939;-73
2024/01/03 06:45:48;;;;;;;;;;;10.10;99.90;;;;;;2624295;47;19947;-73
2024/01/03 06:48:17;;;;;;;;;;;10.20;99.90;;;;;;2624446;47;20042;-73
2024/01/03 06:50:47;;;;;;;;;;;10.10;99.90;;;;;;2625051;47;19994;-73
2024/01/03 06:53:20;;;;;;;;;;;10.20;99.90;;;;;;2624581;54;19939;-73
2024/01/03 06:55:50;;;;;;;;;;;10.20;99.90;;;;;;2620626;47;19954;-74
2024/01/03 06:58:20;;;;;;;;;;;10.20;99.90;;;;;;2620389;39;20364;-74
2024/01/03 07:00:50;;;;;;;;;;;10.20;99.90;;;;;;2619793;54;19953;-73
2024/01/03 07:03:20;;;;;;;;;;;10.20;99.90;;;;;;2619294;54;19946;-73
2024/01/03 07:05:50;;;;;;;;;;;10.20;99.90;;;;;;2618358;54;20441;-73
2024/01/03 07:08:22;;;;;;;;;;;10.30;99.90;;;;;;2621446;54;19953;-73
2024/01/03 07:10:52;;;;;;;;;;;10.30;99.90;;;;;;2622355;54;19950;-74
2024/01/03 07:13:21;;;;;;;;;;;10.20;99.90;;;;;;2619308;47;19947;-73
2024/01/03 07:15:51;;;;;;;;;;;10.20;99.90;;;;;;2618105;47;19939;-73
2024/01/03 07:18:20;;;;;;;;;;;10.20;99.90;;;;;;2618110;54;19970;-73
2024/01/03 07:20:50;;;;;;;;;;;10.30;99.90;;;;;;2617970;54;19947;-74
2024/01/03 07:23:22;;;;;;;;;;;10.30;99.90;;;;;;2617515;46;20040;-73
2024/01/03 07:25:52;;;;;;;;;;;10.30;99.90;;;;;;2617760;54;20049;-71
2024/01/03 07:28:22;;;;;;;;;;;10.30;99.90;;;;;;2618941;47;19939;-71
2024/01/03 07:30:51;;;;;;;;;;;10.30;99.90;;;;;;2617841;54;19939;-72
2024/01/03 07:33:21;;;;;;;;;;;10.30;99.90;;;;;;2617214;54;20520;-73
2024/01/03 07:35:53;;;;;;;;;;;10.30;99.90;;;;;;2617530;47;19954;-72
2024/01/03 07:38:26;;;;;;;;;;;10.20;99.90;;;;;;2618514;54;20065;-72
2024/01/03 07:40:55;;;;;;;;;;;10.30;99.90;;;;;;2617587;54;19953;-74
2024/01/03 07:43:25;;;;;;;;;;;10.30;99.90;;;;;;2621239;47;20476;-73
2024/01/03 07:45:55;;;;;;;;;;;10.30;99.90;;;;;;2619730;54;19946;-73
2024/01/03 07:48:24;;;;;;;;;;;10.30;99.90;;;;;;2617742;54;20449;-74
2024/01/03 07:50:54;;;;;;;;;;;10.30;99.90;;;;;;2618697;54;19993;-73
2024/01/03 07:53:27;;;;;;;;;;;10.30;99.90;;;;;;2618859;54;19989;-74
2024/01/03 07:55:56;;;;;;;;;;;10.30;99.90;;;;;;2617530;54;20053;-74
2024/01/03 07:58:26;;;;;;;;;;;10.30;99.90;;;;;;2618080;54;19951;-73
2024/01/03 08:00:55;;;;;;;;;;;10.30;99.90;;;;;;2618601;54;20415;-73
2024/01/03 08:03:25;;;;;;;;;;;10.30;99.90;;;;;;2617978;54;19947;-73
2024/01/03 08:05:55;;;;;;;;;;;10.30;99.90;;;;;;2618243;39;20320;-74
2024/01/03 08:08:27;;;;;;;;;;;10.30;99.90;;;;;;2617992;54;20491;-73
2024/01/03 08:10:57;;;;;;;;;;;10.30;99.90;;;;;;2617062;47;19957;-73
2024/01/03 08:13:27;;;;;;;;;;;10.20;99.90;;;;;;2617858;47;19995;-73
2024/01/03 08:15:56;;;;;;;;;;;10.30;99.90;;;;;;2617127;47;19946;-73
2024/01/03 08:18:26;;;;;;;;;;;10.30;99.90;;;;;;2617731;47;19947;-74
2024/01/03 08:20:56;;;;;;;;;;;10.30;99.90;;;;;;2617660;54;19950;-74
2024/01/03 08:23:28;;;;;;;;;;;10.30;99.90;;;;;;2620559;31;20455;-73
2024/01/03 08:25:58;;;;;;;;;;;10.40;99.90;;;;;;2617318;54;19996;-73
2024/01/03 08:28:28;;;;;;;;;;;10.40;99.90;;;;;;2618456;39;20471;-74
2024/01/03 08:30:57;;;;;;;;;;;10.30;99.90;;;;;;2618591;54;19939;-73
2024/01/03 08:33:28;;;;;;;;;;;10.40;99.90;;;;;;2619478;54;20046;-74
2024/01/03 08:35:58;;;;;;;;;;;10.40;99.90;;;;;;2617740;54;20459;-74
2024/01/03 08:38:31;;;;;;;;;;;10.40;99.90;;;;;;2617971;47;19950;-74
2024/01/03 08:41:00;;;;;;;;;;;10.40;99.90;;;;;;2616963;47;19954;-74
2024/01/03 08:43:30;;;;;;;;;;;10.50;99.90;;;;;;2617155;47;19996;-73
2024/01/03 08:46:00;;;;;;;;;;;10.40;99.90;;;;;;2616612;47;19946;-74
2024/01/03 08:48:29;;;;;;;;;;;10.50;99.90;;;;;;2617221;54;19938;-74
2024/01/03 08:50:59;;;;;;;;;;;10.50;99.90;;;;;;2616901;54;19961;-73
2024/01/03 08:53:32;;;;;;;;;;;10.60;99.90;;;;;;2616737;54;19950;-74
2024/01/03 08:56:05;;;;;;;;;;;10.60;99.90;;;;;;2616253;47;19939;-74
2024/01/03 08:58:34;;;;;;;;;;;10.60;99.90;;;;;;2617351;54;19945;-73
2024/01/03 09:01:04;;;;;;;;;;;10.70;99.90;;;;;;2619245;47;19938;-73
2024/01/03 09:03:33;;;;;;;;;;;10.70;99.90;;;;;;2622549;54;19953;-74
2024/01/03 09:06:05;;;;;;;;;;;10.90;99.90;;;;;;2621832;54;19953;-73
2024/01/03 09:08:37;;;;;;;;;;;10.80;99.90;;;;;;2619302;49;19945;-73
2024/01/03 09:11:10;;;;;;;;;;;10.70;99.90;;;;;;2617396;47;19946;-73
2024/01/03 09:13:39;;;;;;;;;;;10.80;99.90;;;;;;2618633;47;19946;-73
2024/01/03 09:16:10;;;;;;;;;;;10.80;99.90;;;;;;2617294;47;19954;-73
2024/01/03 09:18:40;;;;;;;;;;;10.80;99.90;;;;;;2615842;54;19954;-73
2024/01/03 09:21:10;;;;;;;;;;;10.80;99.90;;;;;;2617031;47;19960;-73
2024/01/03 09:23:42;;;;;;;;;;;10.90;99.90;;;;;;2616792;54;19938;-73
2024/01/03 09:26:14;;;;;;;;;;;11.00;99.90;;;;;;2618135;54;19939;-73
2024/01/03 09:28:43;;;;;;;;;;;11.00;99.90;;;;;;2618000;54;19947;-73
2024/01/03 09:31:13;;;;;;;;;;;11.10;99.90;;;;;;2616993;47;19946;-73
2024/01/03 09:33:43;;;;;;;;;;;11.10;99.90;;;;;;2616580;54;19954;-72
2024/01/03 09:36:18;;;;;;;;;;;11.10;99.90;;;;;;2616486;47;20457;-73
2024/01/03 09:38:56;;;;;;;;;;;11.20;99.90;;;;;;2618039;39;20371;-74
2024/01/03 09:41:26;;;;;;;;;;;11.20;99.90;;;;;;2617698;54;19946;-73
2024/01/03 09:43:56;;;;;;;;;;;11.30;99.90;;;;;;2617253;54;19953;-73
2024/01/03 09:46:25;;;;;;;;;;;11.40;99.90;;;;;;2616136;47;20026;-76
2024/01/03 09:48:55;;;;;;;;;;;11.40;99.90;;;;;;2616890;47;19945;-75
2024/01/03 09:51:25;;;;;;;;;;;11.50;99.90;;;;;;2617511;39;20340;-74
2024/01/03 09:53:59;;;;;;;;;;;11.50;99.90;;;;;;2615708;54;19947;-74
2024/01/03 09:56:29;;;;;;;;;;;11.60;99.90;;;;;;2615899;47;20471;-74
2024/01/03 09:58:58;;;;;;;;;;;11.70;99.90;;;;;;2617618;54;19951;-75
2024/01/03 10:01:28;;;;;;;;;;;11.70;99.90;;;;;;2617569;47;19949;-75
2024/01/03 10:03:58;;;;;;;;;;;11.80;99.90;;;;;;2617070;47;19950;-74
2024/01/03 10:06:27;;;;;;;;;;;11.80;99.90;;;;;;2617972;47;19992;-75
2024/01/03 10:09:01;;;;;;;;;;;11.80;99.90;;;;;;2618346;47;19957;-75
2024/01/03 10:11:31;;;;;;;;;;;11.90;99.90;;;;;;2617063;54;19947;-75
2024/01/03 10:14:18;;;;;;;;;;;11.90;99.90;;;;;;2617353;47;19939;-75
2024/01/03 10:16:48;;;;;;;;;;;11.90;99.90;;;;;;2618170;47;19951;-76
2024/01/03 10:19:18;;;;;;;;;;;12.00;99.90;;;;;;2616817;39;20344;-75
2024/01/03 10:21:50;;;;;;;;;;;12.10;99.90;;;;;;2617712;47;19947;-76
2024/01/03 10:24:23;;;;;;;;;;;12.10;99.90;;;;;;2616873;47;19968;-75
2024/01/03 10:26:53;;;;;;;;;;;12.10;99.90;;;;;;2616853;47;20038;-74
2024/01/03 10:29:23;;;;;;;;;;;12.10;99.90;;;;;;2618019;39;20636;-73
2024/01/03 10:31:53;;;;;;;;;;;13.00;99.90;;;;;;2618086;54;20049;-74
2024/01/03 10:34:23;;;;;;;;;;;12.10;99.90;;;;;;2617480;54;19939;-74
2024/01/03 10:36:56;;;;;;;;;;;12.10;99.90;;;;;;2617125;47;19953;-74
2024/01/03 10:39:29;;;;;;;;;;;12.10;99.90;;;;;;2615987;54;19968;-74
2024/01/03 10:41:59;;;;;;;;;;;12.10;99.90;;;;;;2617545;39;20360;-74
2024/01/03 10:47:13;;;;;;;;;;;12.00;99.90;;;;;;2602780;54;19990;-78
2024/01/03 10:49:46;;;;;;;;;;;12.10;99.90;;;;;;2621952;47;19957;-77
2024/01/03 10:52:17;;;;;;;;;;;12.20;99.90;;;;;;2621336;47;19945;-79
2024/01/03 10:54:52;;;;;;;;;;;12.00;99.90;;;;;;2626129;47;19950;-79
2024/01/03 10:57:25;;;;;;;;;;;12.00;99.90;;;;;;2629019;46;19927;-80
2024/01/03 11:00:05;;;;;;;;;;;12.10;99.90;;;;;;2627111;47;19957;-80
2024/01/03 11:02:40;;;;;;;;;;;12.50;99.90;;;;;;2624729;54;19946;-77
2024/01/03 11:05:15;;;;;;;;;;;12.10;99.90;;;;;;2627959;47;19942;-79
2024/01/03 11:07:50;;;;;;;;;;;12.20;99.90;;;;;;2627838;47;20592;-81
2024/01/03 11:10:34;;;;;;;;;;;12.20;99.90;;;;;;2627663;47;19947;-78
2024/01/03 11:13:26;;;;;;;;;;;12.20;99.90;;;;;;2630119;54;19939;-79
2024/01/03 11:15:56;;;;;;;;;;;12.30;99.90;;;;;;2629986;47;19966;-83
2024/01/03 11:18:41;;;;;;;;;;;12.30;99.90;;;;;;2628316;46;19942;-82
2024/01/03 11:21:35;;;;;;;;;;;12.40;99.90;;;;;;2623870;47;20054;-77
2024/01/03 11:24:06;;;;;;;;;;;12.40;99.90;;;;;;2626382;47;19938;-82
2024/01/03 11:26:51;;;;;;;;;;;12.50;99.90;;;;;;2617355;47;19985;-73
2024/01/03 11:29:38;;;;;;;;;;;12.50;99.90;;;;;;2619620;46;20057;-74
2024/01/03 11:32:12;;;;;;;;;;;12.60;99.90;;;;;;2617912;39;20336;-76
2024/01/03 11:34:42;;;;;;;;;;;12.70;99.90;;;;;;2617106;54;19975;-75
2024/01/03 11:37:27;;;;;;;;;;;12.70;99.90;;;;;;2609687;47;19961;-75
2024/01/03 11:39:57;;;;;;;;;;;12.70;99.90;;;;;;2611013;47;19947;-74
2024/01/03 11:42:28;;;;;;;;;;;12.80;99.90;;;;;;2612141;47;19969;-74
2024/01/03 11:45:02;;;;;;;;;;;12.80;99.90;;;;;;2612980;47;20444;-74
2024/01/03 14:15:36;;;;;;;;;;;12.40;99.90;;;;;;2591734;39;20343;-77
2024/01/03 14:18:07;;;;;;;;;;;12.20;99.90;;;;;;2620159;54;19939;-76
2024/01/03 14:20:38;;;;;;;;;;;12.40;99.90;;;;;;2620560;47;19962;-76
2024/01/03 14:23:08;;;;;;;;;;;12.30;99.90;;;;;;2621707;54;19950;-81
2024/01/03 14:25:39;;;;;;;;;;;12.30;99.90;;;;;;2625923;39;20478;-81
2024/01/03 14:28:10;;;;;;;;;;;12.30;99.90;;;;;;2627247;47;19946;-81
2024/01/03 14:30:42;;;;;;;;;;;12.30;99.90;;;;;;2627307;54;19942;-80
2024/01/03 14:33:13;;;;;;;;;;;12.30;99.90;;;;;;2628290;54;20014;-81
2024/01/03 14:35:43;;;;;;;;;;;12.20;99.90;;;;;;2628989;54;19994;-80
2024/01/03 14:38:13;;;;;;;;;;;12.20;99.90;;;;;;2625707;47;19990;-80
2024/01/03 14:40:48;;;;;;;;;;;12.80;99.90;;;;;;2628046;46;19947;-79
2024/01/03 14:43:30;;;;;;;;;;;12.20;99.90;;;;;;2624740;54;19970;-79
2024/01/03 14:46:04;;;;;;;;;;;12.20;99.90;;;;;;2621621;47;19954;-76
2024/01/03 14:48:34;;;;;;;;;;;12.10;99.90;;;;;;2618487;47;20451;-77
2024/01/03 14:51:06;;;;;;;;;;;12.10;99.90;;;;;;2618108;54;19947;-77
2024/01/03 14:53:36;;;;;;;;;;;12.00;99.90;;;;;;2621884;46;19947;-79
2024/01/03 14:56:06;;;;;;;;;;;12.00;99.90;;;;;;2623107;47;19951;-78
2024/01/03 14:58:39;;;;;;;;;;;12.00;99.90;;;;;;2626123;47;19957;-77
2024/01/03 15:01:12;;;;;;;;;;;12.00;99.90;;;;;;2625075;54;19939;-76
2024/01/03 15:03:42;;;;;;;;;;;11.90;99.90;;;;;;2621698;47;19951;-78
2024/01/03 15:06:11;;;;;;;;;;;11.90;99.90;;;;;;2626316;46;19990;-77
2024/01/03 15:08:53;;;;;;;;;;;11.90;99.90;;;;;;2622923;54;19957;-77
2024/01/03 15:11:23;;;;;;;;;;;11.70;99.90;;;;;;2621318;54;19946;-76
2024/01/03 15:13:53;;;;;;;;;;;11.80;99.90;;;;;;2619035;54;19950;-77
2024/01/03 15:16:26;;;;;;;;;;;11.80;99.90;;;;;;2619589;54;19950;-76
2024/01/03 15:18:56;;;;;;;;;;;11.70;99.90;;;;;;2620131;54;20098;-76
2024/01/03 15:21:26;;;;;;;;;;;11.70;99.90;;;;;;2620482;47;19961;-77
2024/01/03 15:23:56;;;;;;;;;;;11.70;99.90;;;;;;2621145;54;19946;-76
2024/01/03 15:26:26;;;;;;;;;;;11.60;99.90;;;;;;2624516;47;19957;-77
2024/01/03 15:28:56;;;;;;;;;;;11.90;99.90;;;;;;2628572;54;19973;-78
2024/01/03 15:31:28;;;;;;;;;;;11.50;99.90;;;;;;2624618;54;19946;-78
2024/01/03 15:33:58;;;;;;;;;;;11.50;99.90;;;;;;2622069;54;19947;-78
2024/01/03 15:36:28;;;;;;;;;;;11.50;99.90;;;;;;2621158;54;19945;-79
2024/01/03 15:38:58;;;;;;;;;;;11.50;99.90;;;;;;2624121;54;19955;-79
2024/01/03 15:41:28;;;;;;;;;;;11.40;99.90;;;;;;2624347;54;20007;-81
2024/01/03 15:43:59;;;;;;;;;;;11.50;99.90;;;;;;2625482;54;19998;-79
2024/01/03 15:46:33;;;;;;;;;;;11.30;99.90;;;;;;2626926;54;19950;-81
2024/01/03 15:49:03;;;;;;;;;;;11.40;99.90;;;;;;2629638;47;19922;-80
2024/01/03 15:51:33;;;;;;;;;;;11.40;99.90;;;;;;2626532;54;19946;-80
2024/01/03 15:54:04;;;;;;;;;;;11.30;99.90;;;;;;2625788;46;19943;-81
2024/01/03 15:56:34;;;;;;;;;;;11.20;99.90;;;;;;2624612;54;19962;-79
2024/01/03 15:59:04;;;;;;;;;;;11.20;99.90;;;;;;2622388;54;19943;-79
2024/01/03 16:01:36;;;;;;;;;;;11.20;99.90;;;;;;2622093;46;20014;-79
2024/01/03 16:04:06;;;;;;;;;;;11.10;99.90;;;;;;2622903;54;19974;-79
2024/01/03 16:06:39;;;;;;;;;;;11.10;99.90;;;;;;2622553;47;19958;-80
2024/01/03 16:09:10;;;;;;;;;;;11.10;99.90;;;;;;2623417;47;19951;-81
2024/01/03 16:14:23;;;;;;;;;;;11.00;99.90;;;;;;2612449;46;19954;-75
2024/01/03 16:16:56;;;;;;;;;;;11.00;99.90;;;;;;2617174;47;19954;-79
2024/01/03 16:19:26;;;;;;;;;;;11.00;99.90;;;;;;2615193;39;20126;-75
2024/01/03 16:21:57;;;;;;;;;;;11.00;99.90;;;;;;2621026;47;19938;-75
2024/01/03 16:24:26;;;;;;;;;;;10.90;99.90;;;;;;2620422;47;19958;-77
2024/01/03 16:27:02;;;;;;;;;;;10.80;99.90;;;;;;2618691;54;19953;-74
2024/01/03 16:29:32;;;;;;;;;;;10.80;99.90;;;;;;2617767;54;20057;-75
2024/01/03 16:32:06;;;;;;;;;;;10.80;99.90;;;;;;2614877;47;19958;-75
2024/01/03 16:34:37;;;;;;;;;;;10.80;99.90;;;;;;2617802;39;20774;-76
2024/01/03 16:37:11;;;;;;;;;;;10.70;99.90;;;;;;2616850;47;19954;-75
2024/01/03 16:39:43;;;;;;;;;;;10.80;99.90;;;;;;2617874;54;19954;-73
2024/01/03 16:42:13;;;;;;;;;;;10.80;99.90;;;;;;2616902;47;19951;-73
2024/01/03 16:44:43;;;;;;;;;;;10.80;99.90;;;;;;2617308;47;20460;-72
2024/01/03 16:47:16;;;;;;;;;;;10.80;99.90;;;;;;2617236;47;19959;-73
2024/01/03 16:49:46;;;;;;;;;;;10.80;99.90;;;;;;2617912;54;19945;-73
2024/01/03 16:52:16;;;;;;;;;;;10.80;99.90;;;;;;2617374;39;20360;-73
2024/01/03 16:54:46;;;;;;;;;;;10.80;99.90;;;;;;2616741;54;19960;-72
2024/01/03 16:57:16;;;;;;;;;;;10.80;99.90;;;;;;2617584;54;19950;-75
2024/01/03 16:59:47;;;;;;;;;;;10.80;99.90;;;;;;2618072;39;20224;-75
2024/01/03 17:02:20;;;;;;;;;;;10.60;99.90;;;;;;2619627;39;20353;-73
2024/01/03 17:04:50;;;;;;;;;;;10.50;99.90;;;;;;2620746;54;19939;-73
2024/01/03 17:07:21;;;;;;;;;;;10.20;99.90;;;;;;2617702;47;19992;-74
2024/01/03 17:09:51;;;;;;;;;;;10.10;99.90;;;;;;2617406;39;20352;-74
2024/01/03 17:12:23;;;;;;;;;;;10.00;99.90;;;;;;2617091;54;20433;-73
2024/01/03 17:14:52;;;;;;;;;;;10.00;99.90;;;;;;2615587;47;19946;-73
2024/01/03 17:17:25;;;;;;;;;;;10.00;99.90;;;;;;2615270;47;19992;-73